sensor_id;sensor_type;location;lat;lon;timestamp;pressure;altitude;pressure_sealevel;temperature;humidity
59877;BME280;74472;51.140;17.184;2024-03-08T00:01:35;100866.81;;;2.69;74.94
59877;BME280;74472;51.140;17.184;2024-03-08T00:04:00;100860.84;;;2.66;74.69
59877;BME280;74472;51.140;17.184;2024-03-08T00:06:25;100856.59;;;2.63;75.21
59877;BME280;74472;51.140;17.184;2024-03-08T00:08:51;100866.22;;;2.61;75.22
59877;BME280;74472;51.140;17.184;2024-03-08T00:11:16;100861.19;;;2.55;75.23
59877;BME280;74472;51.140;17.184;2024-03-08T00:13:41;100861.28;;;2.52;75.28
59877;BME280;74472;51.140;17.184;2024-03-08T00:16:07;100857.09;;;2.48;75.37
59877;BME280;74472;51.140;17.184;2024-03-08T00:18:34;100861.47;;;2.46;75.41
59877;BME280;74472;51.140;17.184;2024-03-08T00:20:59;100858.09;;;2.44;75.26
59877;BME280;74472;51.140;17.184;2024-03-08T00:23:25;100856.44;;;2.40;75.33
59877;BME280;74472;51.140;17.184;2024-03-08T00:25:50;100861.66;;;2.40;75.21
59877;BME280;74472;51.140;17.184;2024-03-08T00:28:16;100864.25;;;2.40;75.55
59877;BME280;74472;51.140;17.184;2024-03-08T00:30:43;100865.16;;;2.39;75.42
59877;BME280;74472;51.140;17.184;2024-03-08T00:33:10;100866.94;;;2.37;75.49
59877;BME280;74472;51.140;17.184;2024-03-08T00:35:35;100875.66;;;2.37;75.56
59877;BME280;74472;51.140;17.184;2024-03-08T00:38:01;100862.66;;;2.35;75.65
59877;BME280;74472;51.140;17.184;2024-03-08T00:40:26;100869.72;;;2.32;75.78
59877;BME280;74472;51.140;17.184;2024-03-08T00:42:51;100865.44;;;2.29;75.51
59877;BME280;74472;51.140;17.184;2024-03-08T00:45:18;100862.97;;;2.25;75.60
59877;BME280;74472;51.140;17.184;2024-03-08T00:47:43;100857.88;;;2.22;75.72
59877;BME280;74472;51.140;17.184;2024-03-08T00:50:09;100862.22;;;2.21;75.60
59877;BME280;74472;51.140;17.184;2024-03-08T00:52:35;100854.50;;;2.18;75.82
59877;BME280;74472;51.140;17.184;2024-03-08T00:55:00;100855.50;;;2.14;75.95
59877;BME280;74472;51.140;17.184;2024-03-08T00:57:26;100851.22;;;2.11;76.04
59877;BME280;74472;51.140;17.184;2024-03-08T00:59:51;100850.41;;;2.09;76.25
59877;BME280;74472;51.140;17.184;2024-03-08T01:02:17;100840.03;;;2.08;76.19
59877;BME280;74472;51.140;17.184;2024-03-08T01:04:44;100838.19;;;2.11;76.13
59877;BME280;74472;51.140;17.184;2024-03-08T01:07:10;100839.06;;;2.10;76.11
59877;BME280;74472;51.140;17.184;2024-03-08T01:09:35;100837.38;;;2.09;76.28
59877;BME280;74472;51.140;17.184;2024-03-08T01:12:01;100836.53;;;2.09;76.29
59877;BME280;74472;51.140;17.184;2024-03-08T01:14:26;100842.50;;;2.13;76.31
59877;BME280;74472;51.140;17.184;2024-03-08T01:16:51;100840.00;;;2.09;76.32
59877;BME280;74472;51.140;17.184;2024-03-08T01:19:17;100836.53;;;2.09;76.08
59877;BME280;74472;51.140;17.184;2024-03-08T01:21:42;100834.84;;;2.08;76.11
59877;BME280;74472;51.140;17.184;2024-03-08T01:24:08;100827.06;;;2.06;76.23
59877;BME280;74472;51.140;17.184;2024-03-08T01:26:33;100826.28;;;2.04;76.41
59877;BME280;74472;51.140;17.184;2024-03-08T01:29:02;100817.66;;;2.02;76.58
59877;BME280;74472;51.140;17.184;2024-03-08T01:31:29;100822.91;;;2.01;76.59
59877;BME280;74472;51.140;17.184;2024-03-08T01:33:55;100816.88;;;1.99;76.34
59877;BME280;74472;51.140;17.184;2024-03-08T01:36:20;100818.63;;;1.98;76.65
59877;BME280;74472;51.140;17.184;2024-03-08T01:38:46;100813.47;;;1.97;76.51
59877;BME280;74472;51.140;17.184;2024-03-08T01:41:11;100819.56;;;1.96;76.51
59877;BME280;74472;51.140;17.184;2024-03-08T01:43:38;100820.41;;;1.98;76.56
59877;BME280;74472;51.140;17.184;2024-03-08T01:46:04;100821.28;;;1.97;76.27
59877;BME280;74472;51.140;17.184;2024-03-08T01:48:31;100808.50;;;1.89;76.29
59877;BME280;74472;51.140;17.184;2024-03-08T01:50:57;100811.19;;;1.86;76.82
59877;BME280;74472;51.140;17.184;2024-03-08T01:53:24;100802.69;;;1.79;76.88
59877;BME280;74472;51.140;17.184;2024-03-08T01:55:49;100793.31;;;1.74;76.99
59877;BME280;74472;51.140;17.184;2024-03-08T01:58:17;100795.13;;;1.72;76.92
59877;BME280;74472;51.140;17.184;2024-03-08T02:00:46;100795.13;;;1.72;77.18
59877;BME280;74472;51.140;17.184;2024-03-08T02:03:17;100794.28;;;1.71;76.95
59877;BME280;74472;51.140;17.184;2024-03-08T02:05:42;100795.16;;;1.70;77.02
59877;BME280;74472;51.140;17.184;2024-03-08T02:08:09;100799.34;;;1.76;76.84
59877;BME280;74472;51.140;17.184;2024-03-08T02:10:39;100790.72;;;1.74;76.85
59877;BME280;74472;51.140;17.184;2024-03-08T02:13:04;100788.25;;;1.69;76.80
59877;BME280;74472;51.140;17.184;2024-03-08T02:15:55;100789.16;;;1.68;76.74
59877;BME280;74472;51.140;17.184;2024-03-08T02:18:21;100792.69;;;1.66;76.87
59877;BME280;74472;51.140;17.184;2024-03-08T02:20:57;100794.53;;;1.62;76.85
59877;BME280;74472;51.140;17.184;2024-03-08T02:23:23;100785.00;;;1.61;77.15
59877;BME280;74472;51.140;17.184;2024-03-08T02:25:50;100783.28;;;1.61;76.88
59877;BME280;74472;51.140;17.184;2024-03-08T02:28:16;100787.69;;;1.58;76.98
59877;BME280;74472;51.140;17.184;2024-03-08T02:30:44;100791.19;;;1.57;76.83
59877;BME280;74472;51.140;17.184;2024-03-08T02:33:09;100786.81;;;1.59;77.01
59877;BME280;74472;51.140;17.184;2024-03-08T02:35:35;100783.31;;;1.60;77.20
59877;BME280;74472;51.140;17.184;2024-03-08T02:38:04;100779.94;;;1.56;77.03
59877;BME280;74472;51.140;17.184;2024-03-08T02:40:29;100779.19;;;1.51;76.75
59877;BME280;74472;51.140;17.184;2024-03-08T02:42:55;100782.06;;;1.42;76.84
59877;BME280;74472;51.140;17.184;2024-03-08T02:45:20;100778.72;;;1.38;77.07
59877;BME280;74472;51.140;17.184;2024-03-08T02:47:46;100771.88;;;1.34;77.33
59877;BME280;74472;51.140;17.184;2024-03-08T02:50:11;100777.97;;;1.33;77.18
59877;BME280;74472;51.140;17.184;2024-03-08T02:52:37;100774.53;;;1.31;77.63
59877;BME280;74472;51.140;17.184;2024-03-08T02:55:02;100781.47;;;1.32;77.31
59877;BME280;74472;51.140;17.184;2024-03-08T02:57:28;100771.16;;;1.29;77.51
59877;BME280;74472;51.140;17.184;2024-03-08T02:59:54;100766.81;;;1.28;77.57
59877;BME280;74472;51.140;17.184;2024-03-08T03:02:19;100776.44;;;1.26;77.78
59877;BME280;74472;51.140;17.184;2024-03-08T03:04:45;100774.69;;;1.27;77.57
59877;BME280;74472;51.140;17.184;2024-03-08T03:07:10;100766.13;;;1.23;77.68
59877;BME280;74472;51.140;17.184;2024-03-08T03:09:36;100765.28;;;1.23;77.68
59877;BME280;74472;51.140;17.184;2024-03-08T03:12:01;100767.81;;;1.24;77.68
59877;BME280;74472;51.140;17.184;2024-03-08T03:14:27;100776.53;;;1.23;77.34
59877;BME280;74472;51.140;17.184;2024-03-08T03:16:53;100774.75;;;1.24;77.38
59877;BME280;74472;51.140;17.184;2024-03-08T03:19:19;100773.94;;;1.22;77.36
59877;BME280;74472;51.140;17.184;2024-03-08T03:21:45;100775.63;;;1.24;77.60
59877;BME280;74472;51.140;17.184;2024-03-08T03:24:11;100767.09;;;1.19;77.25
59877;BME280;74472;51.140;17.184;2024-03-08T03:26:40;100771.41;;;1.20;77.51
59877;BME280;74472;51.140;17.184;2024-03-08T03:29:06;100776.59;;;1.20;77.60
59877;BME280;74472;51.140;17.184;2024-03-08T03:31:31;100770.66;;;1.15;77.44
59877;BME280;74472;51.140;17.184;2024-03-08T03:33:57;100771.56;;;1.14;77.79
59877;BME280;74472;51.140;17.184;2024-03-08T03:36:28;100765.50;;;1.13;77.82
59877;BME280;74472;51.140;17.184;2024-03-08T03:38:53;100768.97;;;1.14;77.63
59877;BME280;74472;51.140;17.184;2024-03-08T03:41:32;100772.41;;;1.14;77.73
59877;BME280;74472;51.140;17.184;2024-03-08T03:43:57;100772.41;;;1.14;77.34
59877;BME280;74472;51.140;17.184;2024-03-08T03:46:23;100773.31;;;1.13;77.36
59877;BME280;74472;51.140;17.184;2024-03-08T03:48:48;100775.00;;;1.14;77.36
59877;BME280;74472;51.140;17.184;2024-03-08T03:51:13;100781.94;;;1.15;77.56
59877;BME280;74472;51.140;17.184;2024-03-08T03:53:40;100774.25;;;1.11;77.52
59877;BME280;74472;51.140;17.184;2024-03-08T03:56:06;100770.88;;;1.07;77.73
59877;BME280;74472;51.140;17.184;2024-03-08T03:58:32;100769.25;;;1.03;77.84
59877;BME280;74472;51.140;17.184;2024-03-08T04:00:58;100769.28;;;1.02;77.83
59877;BME280;74472;51.140;17.184;2024-03-08T04:03:23;100769.41;;;0.97;78.09
59877;BME280;74472;51.140;17.184;2024-03-08T04:05:48;100763.31;;;0.98;77.95
59877;BME280;74472;51.140;17.184;2024-03-08T04:08:14;100768.56;;;0.97;77.57
59877;BME280;74472;51.140;17.184;2024-03-08T04:10:39;100765.91;;;0.98;77.52
59877;BME280;74472;51.140;17.184;2024-03-08T04:13:06;100773.84;;;0.93;77.82
59877;BME280;74472;51.140;17.184;2024-03-08T04:15:32;100764.34;;;0.92;78.08
59877;BME280;74472;51.140;17.184;2024-03-08T04:17:57;100770.41;;;0.91;78.05
59877;BME280;74472;51.140;17.184;2024-03-08T04:20:22;100776.50;;;0.90;77.84
59877;BME280;74472;51.140;17.184;2024-03-08T04:22:51;100773.06;;;0.90;78.12
59877;BME280;74472;51.140;17.184;2024-03-08T04:25:16;100764.44;;;0.88;78.27
59877;BME280;74472;51.140;17.184;2024-03-08T04:27:41;100761.00;;;0.87;78.18
59877;BME280;74472;51.140;17.184;2024-03-08T04:30:07;100757.56;;;0.85;78.11
59877;BME280;74472;51.140;17.184;2024-03-08T04:32:33;100754.94;;;0.87;78.08
59877;BME280;74472;51.140;17.184;2024-03-08T04:34:58;100757.56;;;0.85;77.95
59877;BME280;74472;51.140;17.184;2024-03-08T04:37:23;100756.72;;;0.85;78.13
59877;BME280;74472;51.140;17.184;2024-03-08T04:39:50;100761.97;;;0.83;77.86
59877;BME280;74472;51.140;17.184;2024-03-08T04:42:15;100765.53;;;0.79;78.31
59877;BME280;74472;51.140;17.184;2024-03-08T04:44:43;100764.72;;;0.77;78.16
59877;BME280;74472;51.140;17.184;2024-03-08T04:47:08;100754.41;;;0.74;78.51
59877;BME280;74472;51.140;17.184;2024-03-08T04:49:33;100757.00;;;0.74;78.14
59877;BME280;74472;51.140;17.184;2024-03-08T04:52:04;100764.75;;;0.76;78.04
59877;BME280;74472;51.140;17.184;2024-03-08T04:54:30;100760.44;;;0.76;78.14
59877;BME280;74472;51.140;17.184;2024-03-08T04:56:56;100757.91;;;0.73;78.46
59877;BME280;74472;51.140;17.184;2024-03-08T04:59:21;100757.94;;;0.72;78.49
59877;BME280;74472;51.140;17.184;2024-03-08T05:01:47;100766.56;;;0.72;78.39
59877;BME280;74472;51.140;17.184;2024-03-08T05:04:13;100757.22;;;0.65;78.49
59877;BME280;74472;51.140;17.184;2024-03-08T05:06:38;100762.50;;;0.62;78.46
59877;BME280;74472;51.140;17.184;2024-03-08T05:09:03;100764.25;;;0.61;78.27
59877;BME280;74472;51.140;17.184;2024-03-08T05:11:45;100759.97;;;0.59;78.39
59877;BME280;74472;51.140;17.184;2024-03-08T05:14:11;100761.78;;;0.57;78.47
59877;BME280;74472;51.140;17.184;2024-03-08T05:16:37;100755.81;;;0.52;78.57
59877;BME280;74472;51.140;17.184;2024-03-08T05:19:03;100767.03;;;0.54;78.59
59877;BME280;74472;51.140;17.184;2024-03-08T05:21:28;100753.22;;;0.52;78.48
59877;BME280;74472;51.140;17.184;2024-03-08T05:23:54;100766.13;;;0.55;78.40
59877;BME280;74472;51.140;17.184;2024-03-08T05:26:19;100761.94;;;0.49;78.31
59877;BME280;74472;51.140;17.184;2024-03-08T05:28:44;100755.97;;;0.45;79.01
59877;BME280;74472;51.140;17.184;2024-03-08T05:31:10;100763.72;;;0.47;78.69
59877;BME280;74472;51.140;17.184;2024-03-08T05:33:35;100767.13;;;0.49;78.73
59877;BME280;74472;51.140;17.184;2024-03-08T05:36:00;100759.47;;;0.44;79.10
59877;BME280;74472;51.140;17.184;2024-03-08T05:38:27;100753.41;;;0.44;78.81
59877;BME280;74472;51.140;17.184;2024-03-08T05:40:53;100755.13;;;0.45;78.66
59877;BME280;74472;51.140;17.184;2024-03-08T05:43:19;100745.66;;;0.42;79.15
59877;BME280;74472;51.140;17.184;2024-03-08T05:45:45;100755.16;;;0.43;78.83
59877;BME280;74472;51.140;17.184;2024-03-08T05:48:10;100759.47;;;0.44;79.03
59877;BME280;74472;51.140;17.184;2024-03-08T05:50:38;100765.34;;;0.51;78.96
59877;BME280;74472;51.140;17.184;2024-03-08T05:53:04;100765.31;;;0.53;79.02
59877;BME280;74472;51.140;17.184;2024-03-08T05:55:32;100761.00;;;0.52;78.93
59877;BME280;74472;51.140;17.184;2024-03-08T05:58:02;100766.22;;;0.52;79.10
59877;BME280;74472;51.140;17.184;2024-03-08T06:00:28;100760.16;;;0.51;78.83
59877;BME280;74472;51.140;17.184;2024-03-08T06:02:53;100763.66;;;0.50;79.10
59877;BME280;74472;51.140;17.184;2024-03-08T06:05:18;100768.78;;;0.53;79.40
59877;BME280;74472;51.140;17.184;2024-03-08T06:07:44;100761.78;;;0.57;79.47
59877;BME280;74472;51.140;17.184;2024-03-08T06:10:11;100773.84;;;0.58;78.90
59877;BME280;74472;51.140;17.184;2024-03-08T06:12:37;100773.84;;;0.59;79.20
59877;BME280;74472;51.140;17.184;2024-03-08T06:15:09;100779.88;;;0.60;79.30
59877;BME280;74472;51.140;17.184;2024-03-08T06:17:38;100779.81;;;0.63;79.39
59877;BME280;74472;51.140;17.184;2024-03-08T06:20:03;100780.66;;;0.63;79.07
59877;BME280;74472;51.140;17.184;2024-03-08T06:22:35;100779.75;;;0.64;79.34
59877;BME280;74472;51.140;17.184;2024-03-08T06:25:00;100780.59;;;0.66;79.32
59877;BME280;74472;51.140;17.184;2024-03-08T06:27:26;100773.63;;;0.67;79.15
59877;BME280;74472;51.140;17.184;2024-03-08T06:29:51;100767.63;;;0.65;78.95
59877;BME280;74472;51.140;17.184;2024-03-08T06:32:16;100768.66;;;0.58;79.33
59877;BME280;74472;51.140;17.184;2024-03-08T06:34:42;100769.63;;;0.54;79.56
59877;BME280;74472;51.140;17.184;2024-03-08T06:37:07;100770.63;;;0.48;79.75
59877;BME280;74472;51.140;17.184;2024-03-08T06:39:32;100767.31;;;0.41;79.75
59877;BME280;74472;51.140;17.184;2024-03-08T06:41:59;100773.44;;;0.39;79.75
59877;BME280;74472;51.140;17.184;2024-03-08T06:44:25;100777.06;;;0.33;79.96
59877;BME280;74472;51.140;17.184;2024-03-08T06:46:51;100776.28;;;0.30;80.27
59877;BME280;74472;51.140;17.184;2024-03-08T06:49:16;100769.34;;;0.30;80.84
59877;BME280;74472;51.140;17.184;2024-03-08T06:51:41;100754.47;;;0.35;80.61
59877;BME280;74472;51.140;17.184;2024-03-08T06:54:07;100769.91;;;0.41;80.70
59877;BME280;74472;51.140;17.184;2024-03-08T06:56:34;100762.19;;;0.40;80.85
59877;BME280;74472;51.140;17.184;2024-03-08T06:59:00;100768.28;;;0.37;80.82
59877;BME280;74472;51.140;17.184;2024-03-08T07:01:25;100762.13;;;0.41;81.25
59877;BME280;74472;51.140;17.184;2024-03-08T07:03:50;100770.69;;;0.45;81.30
59877;BME280;74472;51.140;17.184;2024-03-08T07:06:18;100766.34;;;0.45;81.07
59877;BME280;74472;51.140;17.184;2024-03-08T07:08:44;100774.91;;;0.51;81.63
59877;BME280;74472;51.140;17.184;2024-03-08T07:11:11;100766.22;;;0.52;81.25
59877;BME280;74472;51.140;17.184;2024-03-08T07:13:37;100772.25;;;0.52;81.63
59877;BME280;74472;51.140;17.184;2024-03-08T07:16:04;100774.00;;;0.52;81.77
59877;BME280;74472;51.140;17.184;2024-03-08T07:18:29;100767.91;;;0.53;81.96
59877;BME280;74472;51.140;17.184;2024-03-08T07:20:55;100770.44;;;0.56;81.75
59877;BME280;74472;51.140;17.184;2024-03-08T07:23:20;100771.25;;;0.59;81.93
59877;BME280;74472;51.140;17.184;2024-03-08T07:26:04;100769.41;;;0.63;81.87
59877;BME280;74472;51.140;17.184;2024-03-08T07:28:29;100770.28;;;0.62;81.85
59877;BME280;74472;51.140;17.184;2024-03-08T07:30:56;100768.59;;;0.61;82.01
59877;BME280;74472;51.140;17.184;2024-03-08T07:33:34;100772.00;;;0.63;82.64
59877;BME280;74472;51.140;17.184;2024-03-08T07:36:00;100758.94;;;0.66;82.62
59877;BME280;74472;51.140;17.184;2024-03-08T07:38:26;100767.38;;;0.74;82.70
59877;BME280;74472;51.140;17.184;2024-03-08T07:40:51;100769.00;;;0.80;82.79
59877;BME280;74472;51.140;17.184;2024-03-08T07:43:17;100775.75;;;0.85;82.53
59877;BME280;74472;51.140;17.184;2024-03-08T07:45:42;100777.34;;;0.92;82.90
59877;BME280;74472;51.140;17.184;2024-03-08T07:48:08;100771.16;;;0.97;82.75
59877;BME280;74472;51.140;17.184;2024-03-08T07:50:36;100766.66;;;1.03;82.67
59877;BME280;74472;51.140;17.184;2024-03-08T07:53:02;100769.88;;;1.13;82.66
59877;BME280;74472;51.140;17.184;2024-03-08T07:55:29;100770.56;;;1.20;82.69
59877;BME280;74472;51.140;17.184;2024-03-08T07:57:56;100774.75;;;1.25;82.66
59877;BME280;74472;51.140;17.184;2024-03-08T08:00:21;100768.56;;;1.29;82.63
59877;BME280;74472;51.140;17.184;2024-03-08T08:02:46;100764.91;;;1.35;82.78
59877;BME280;74472;51.140;17.184;2024-03-08T08:05:14;100764.72;;;1.43;82.76
59877;BME280;74472;51.140;17.184;2024-03-08T08:07:40;100759.34;;;1.49;82.95
59877;BME280;74472;51.140;17.184;2024-03-08T08:10:08;100761.72;;;1.56;82.56
59877;BME280;74472;51.140;17.184;2024-03-08T08:12:40;100755.53;;;1.60;82.91
59877;BME280;74472;51.140;17.184;2024-03-08T08:15:07;100762.13;;;1.72;82.49
59877;BME280;74472;51.140;17.184;2024-03-08T08:17:32;100756.63;;;1.83;82.84
59877;BME280;74472;51.140;17.184;2024-03-08T08:19:59;100763.31;;;1.92;82.61
59877;BME280;74472;51.140;17.184;2024-03-08T08:22:25;100760.47;;;1.99;82.89
59877;BME280;74472;51.140;17.184;2024-03-08T08:24:50;100756.75;;;2.08;82.79
59877;BME280;74472;51.140;17.184;2024-03-08T08:27:17;100756.44;;;2.17;82.43
59877;BME280;74472;51.140;17.184;2024-03-08T08:29:42;100751.78;;;2.27;82.48
59877;BME280;74472;51.140;17.184;2024-03-08T08:32:08;100749.91;;;2.32;82.22
59877;BME280;74472;51.140;17.184;2024-03-08T08:34:35;100755.78;;;2.39;82.43
59877;BME280;74472;51.140;17.184;2024-03-08T08:37:01;100752.06;;;2.46;81.62
59877;BME280;74472;51.140;17.184;2024-03-08T08:39:26;100745.66;;;2.56;82.81
59877;BME280;74472;51.140;17.184;2024-03-08T08:41:51;100747.03;;;2.66;81.87
59877;BME280;74472;51.140;17.184;2024-03-08T08:44:17;100757.13;;;2.77;82.00
59877;BME280;74472;51.140;17.184;2024-03-08T08:46:43;100747.34;;;2.84;82.10
59877;BME280;74472;51.140;17.184;2024-03-08T08:49:08;100749.63;;;2.93;82.29
59877;BME280;74472;51.140;17.184;2024-03-08T08:51:36;100744.91;;;3.04;82.06
59877;BME280;74472;51.140;17.184;2024-03-08T08:54:01;100745.25;;;3.18;81.66
59877;BME280;74472;51.140;17.184;2024-03-08T08:56:27;100745.06;;;3.24;81.66
59877;BME280;74472;51.140;17.184;2024-03-08T08:58:53;100743.91;;;3.32;81.39
59877;BME280;74472;51.140;17.184;2024-03-08T09:01:19;100742.00;;;3.37;80.92
59877;BME280;74472;51.140;17.184;2024-03-08T09:03:45;100742.56;;;3.45;81.78
59877;BME280;74472;51.140;17.184;2024-03-08T09:06:12;100742.94;;;3.59;81.38
59877;BME280;74472;51.140;17.184;2024-03-08T09:08:39;100735.53;;;3.70;80.93
59877;BME280;74472;51.140;17.184;2024-03-08T09:11:04;100731.84;;;3.76;80.48
59877;BME280;74472;51.140;17.184;2024-03-08T09:13:31;100728.03;;;3.85;80.26
59877;BME280;74472;51.140;17.184;2024-03-08T09:15:56;100731.13;;;3.94;80.36
59877;BME280;74472;51.140;17.184;2024-03-08T09:18:21;100721.03;;;4.09;81.05
59877;BME280;74472;51.140;17.184;2024-03-08T09:20:47;100722.03;;;4.27;80.74
59877;BME280;74472;51.140;17.184;2024-03-08T09:23:12;100718.09;;;4.38;80.57
59877;BME280;74472;51.140;17.184;2024-03-08T09:25:37;100717.66;;;4.49;79.68
59877;BME280;74472;51.140;17.184;2024-03-08T09:28:03;100721.78;;;4.55;79.01
59877;BME280;74472;51.140;17.184;2024-03-08T09:30:30;100710.19;;;4.60;78.94
59877;BME280;74472;51.140;17.184;2024-03-08T09:32:56;100713.47;;;4.65;78.68
59877;BME280;74472;51.140;17.184;2024-03-08T09:35:21;100708.78;;;4.74;78.51
59877;BME280;74472;51.140;17.184;2024-03-08T09:37:46;100709.91;;;4.88;79.58
59877;BME280;74472;51.140;17.184;2024-03-08T09:40:15;100708.38;;;5.03;78.39
59877;BME280;74472;51.140;17.184;2024-03-08T09:42:44;100699.28;;;5.12;79.08
59877;BME280;74472;51.140;17.184;2024-03-08T09:45:11;100703.72;;;5.30;78.68
59877;BME280;74472;51.140;17.184;2024-03-08T09:47:39;100688.44;;;5.40;77.54
59877;BME280;74472;51.140;17.184;2024-03-08T09:50:07;100687.38;;;5.44;77.79
59877;BME280;74472;51.140;17.184;2024-03-08T09:52:35;100689.78;;;5.49;76.72
59877;BME280;74472;51.140;17.184;2024-03-08T09:55:01;100684.22;;;5.56;77.07
59877;BME280;74472;51.140;17.184;2024-03-08T09:57:26;100679.41;;;5.66;77.18
59877;BME280;74472;51.140;17.184;2024-03-08T09:59:52;100676.28;;;5.77;77.93
59877;BME280;74472;51.140;17.184;2024-03-08T10:02:18;100678.97;;;5.94;76.87
59877;BME280;74472;51.140;17.184;2024-03-08T10:04:44;100674.28;;;6.01;76.16
59877;BME280;74472;51.140;17.184;2024-03-08T10:07:12;100679.00;;;6.11;77.08
59877;BME280;74472;51.140;17.184;2024-03-08T10:09:38;100671.75;;;6.17;75.64
59877;BME280;74472;51.140;17.184;2024-03-08T10:12:04;100670.38;;;6.27;76.02
59877;BME280;74472;51.140;17.184;2024-03-08T10:14:30;100677.81;;;6.36;75.81
59877;BME280;74472;51.140;17.184;2024-03-08T10:16:57;100672.19;;;6.44;75.17
59877;BME280;74472;51.140;17.184;2024-03-08T10:19:25;100670.72;;;6.55;76.01
59877;BME280;74472;51.140;17.184;2024-03-08T10:21:51;100670.84;;;6.70;76.11
59877;BME280;74472;51.140;17.184;2024-03-08T10:24:22;100672.09;;;6.80;75.08
59877;BME280;74472;51.140;17.184;2024-03-08T10:26:51;100678.78;;;6.86;74.72
59877;BME280;74472;51.140;17.184;2024-03-08T10:29:18;100673.00;;;6.96;74.94
59877;BME280;74472;51.140;17.184;2024-03-08T10:31:43;100670.22;;;6.99;73.81
59877;BME280;74472;51.140;17.184;2024-03-08T10:34:11;100672.50;;;7.05;75.11
59877;BME280;74472;51.140;17.184;2024-03-08T10:36:38;100674.50;;;7.18;74.19
59877;BME280;74472;51.140;17.184;2024-03-08T10:39:11;100676.72;;;7.25;73.30
59877;BME280;74472;51.140;17.184;2024-03-08T10:41:43;100675.03;;;7.24;72.41
59877;BME280;74472;51.140;17.184;2024-03-08T10:44:29;100672.91;;;7.31;72.44
59877;BME280;74472;51.140;17.184;2024-03-08T10:47:13;100666.72;;;7.32;73.10
59877;BME280;74472;51.140;17.184;2024-03-08T10:52:29;100661.00;;;7.41;72.80
59877;BME280;74472;51.140;17.184;2024-03-08T10:54:56;100656.09;;;7.51;72.34
59877;BME280;74472;51.140;17.184;2024-03-08T10:57:22;100655.66;;;7.59;72.40
59877;BME280;74472;51.140;17.184;2024-03-08T10:59:49;100655.16;;;7.68;71.47
59877;BME280;74472;51.140;17.184;2024-03-08T11:02:16;100657.44;;;7.74;72.48
59877;BME280;74472;51.140;17.184;2024-03-08T11:04:48;100654.03;;;7.88;71.80
59877;BME280;74472;51.140;17.184;2024-03-08T11:07:15;100644.88;;;7.95;70.93
59877;BME280;74472;51.140;17.184;2024-03-08T11:09:43;100650.47;;;8.05;71.78
59877;BME280;74472;51.140;17.184;2024-03-08T11:12:21;100643.84;;;8.13;70.99
59877;BME280;74472;51.140;17.184;2024-03-08T11:14:48;100636.97;;;8.11;69.57
59877;BME280;74472;51.140;17.184;2024-03-08T11:20:09;100636.63;;;8.17;69.62
59877;BME280;74472;51.140;17.184;2024-03-08T11:22:40;100636.16;;;8.25;70.02
59877;BME280;74472;51.140;17.184;2024-03-08T11:25:09;100624.63;;;8.27;69.95
59877;BME280;74472;51.140;17.184;2024-03-08T11:27:38;100628.09;;;8.28;68.95
59877;BME280;74472;51.140;17.184;2024-03-08T11:30:08;100628.28;;;8.25;68.17
59877;BME280;74472;51.140;17.184;2024-03-08T11:32:38;100625.09;;;8.19;68.33
59877;BME280;74472;51.140;17.184;2024-03-08T11:35:07;100612.78;;;8.20;68.37
59877;BME280;74472;51.140;17.184;2024-03-08T11:37:34;100608.09;;;8.25;68.75
59877;BME280;74472;51.140;17.184;2024-03-08T11:40:01;100604.94;;;8.34;68.96
59877;BME280;74472;51.140;17.184;2024-03-08T11:42:29;100599.50;;;8.37;67.85
59877;BME280;74472;51.140;17.184;2024-03-08T11:44:55;100606.41;;;8.40;68.22
59877;BME280;74472;51.140;17.184;2024-03-08T11:47:21;100599.72;;;8.49;68.47
59877;BME280;74472;51.140;17.184;2024-03-08T11:49:46;100600.97;;;8.57;68.25
59877;BME280;74472;51.140;17.184;2024-03-08T11:52:14;100598.75;;;8.65;68.33
59877;BME280;74472;51.140;17.184;2024-03-08T11:54:41;100590.19;;;8.76;68.11
59877;BME280;74472;51.140;17.184;2024-03-08T11:57:06;100588.41;;;8.77;67.10
59877;BME280;74472;51.140;17.184;2024-03-08T11:59:32;100579.56;;;8.78;67.62
59877;BME280;74472;51.140;17.184;2024-03-08T12:02:04;100580.13;;;8.83;67.43
59877;BME280;74472;51.140;17.184;2024-03-08T12:04:31;100574.22;;;8.93;67.69
59877;BME280;74472;51.140;17.184;2024-03-08T12:07:00;100576.00;;;8.93;66.24
59877;BME280;74472;51.140;17.184;2024-03-08T12:09:35;100566.69;;;8.87;66.59
59877;BME280;74472;51.140;17.184;2024-03-08T12:12:01;100559.38;;;8.92;66.99
59877;BME280;74472;51.140;17.184;2024-03-08T12:14:28;100567.72;;;8.99;66.64
59877;BME280;74472;51.140;17.184;2024-03-08T12:16:53;100568.09;;;9.07;66.67
59877;BME280;74472;51.140;17.184;2024-03-08T12:19:19;100567.69;;;9.13;66.09
59877;BME280;74472;51.140;17.184;2024-03-08T12:21:44;100565.06;;;9.13;66.21
59877;BME280;74472;51.140;17.184;2024-03-08T12:24:15;100557.81;;;9.17;65.98
59877;BME280;74472;51.140;17.184;2024-03-08T12:26:45;100548.78;;;9.21;65.59
59877;BME280;74472;51.140;17.184;2024-03-08T12:29:26;100545.69;;;9.29;65.91
59877;BME280;74472;51.140;17.184;2024-03-08T12:31:55;100545.28;;;9.35;64.91
59877;BME280;74472;51.140;17.184;2024-03-08T12:34:23;100547.81;;;9.36;65.25
59877;BME280;74472;51.140;17.184;2024-03-08T12:36:50;100544.91;;;9.41;65.28
59877;BME280;74472;51.140;17.184;2024-03-08T12:39:17;100544.41;;;9.49;64.70
59877;BME280;74472;51.140;17.184;2024-03-08T12:41:47;100538.94;;;9.52;64.90
59877;BME280;74472;51.140;17.184;2024-03-08T12:44:12;100543.44;;;9.50;63.20
59877;BME280;74472;51.140;17.184;2024-03-08T12:46:38;100540.47;;;9.42;63.33
59877;BME280;74472;51.140;17.184;2024-03-08T12:49:08;100535.00;;;9.45;63.93
59877;BME280;74472;51.140;17.184;2024-03-08T12:51:38;100532.91;;;9.50;63.64
59877;BME280;74472;51.140;17.184;2024-03-08T12:54:07;100529.63;;;9.46;63.29